createdAt,value
2019-05-30T00:00:17.067Z,9.95
2019-05-30T00:02:37.314Z,9.20
2019-05-30T00:05:04.431Z,10.43
2019-05-30T00:07:30.575Z,7.78
2019-05-30T00:09:56.602Z,8.65
2019-05-30T00:12:22.614Z,10.45
2019-05-30T00:14:48.646Z,7.50
2019-05-30T00:17:14.661Z,9.63
2019-05-30T00:19:40.695Z,9.45
2019-05-30T00:22:06.716Z,8.30
2019-05-30T00:24:32.758Z,7.05
2019-05-30T00:26:58.776Z,6.22
2019-05-30T00:29:26.308Z,8.78
2019-05-30T00:31:52.550Z,6.47
2019-05-30T00:34:18.590Z,7.30
2019-05-30T00:36:44.598Z,8.10
2019-05-30T00:39:10.631Z,8.73
2019-05-30T00:41:36.633Z,9.88
2019-05-30T00:44:04.322Z,6.03
2019-05-30T00:46:30.494Z,5.80
2019-05-30T00:48:56.515Z,6.15
2019-05-30T00:51:22.533Z,6.72
2019-05-30T00:53:48.559Z,7.45
2019-05-30T00:56:14.685Z,6.95
2019-05-30T00:58:40.689Z,6.25
2019-05-30T01:01:07.140Z,8.13
2019-05-30T01:03:33.227Z,8.00
2019-05-30T01:05:59.242Z,8.78
2019-05-30T01:08:25.247Z,5.92
2019-05-30T01:10:51.289Z,8.03
2019-05-30T01:13:17.295Z,5.33
2019-05-30T01:15:43.336Z,7.65
2019-05-30T01:18:09.360Z,5.58
2019-05-30T01:20:35.400Z,6.85
2019-05-30T01:23:01.694Z,7.70
2019-05-30T01:25:27.744Z,8.73
2019-05-30T01:27:53.760Z,9.23
2019-05-30T01:30:19.801Z,8.98
2019-05-30T01:32:45.989Z,8.28
2019-05-30T01:35:12.214Z,6.97
2019-05-30T01:37:38.242Z,9.73
2019-05-30T01:40:06.543Z,8.60
2019-05-30T01:42:32.704Z,11.43
2019-05-30T01:45:00.123Z,7.33
2019-05-30T01:47:26.567Z,7.15
2019-05-30T01:49:52.596Z,6.72
2019-05-30T01:52:18.638Z,5.83
2019-05-30T01:54:44.738Z,5.65
2019-05-30T01:57:10.774Z,5.53
2019-05-30T01:59:36.799Z,9.15
2019-05-30T02:02:05.029Z,5.17
2019-05-30T02:04:31.261Z,5.87
2019-05-30T02:06:59.083Z,6.28
2019-05-30T02:09:25.294Z,4.75
2019-05-30T02:11:51.329Z,5.62
2019-05-30T02:14:17.354Z,5.75
2019-05-30T02:16:43.730Z,4.30
2019-05-30T02:19:10.550Z,4.20
2019-05-30T02:21:36.898Z,4.10
2019-05-30T02:24:03.827Z,4.92
2019-05-30T02:26:29.971Z,3.80
2019-05-30T02:28:55.986Z,3.62
2019-05-30T02:31:38.461Z,4.12
2019-05-30T02:33:49.928Z,4.60
2019-05-30T02:36:15.973Z,3.92
2019-05-30T02:38:42.009Z,3.58
2019-05-30T02:41:09.850Z,4.35
2019-05-30T02:43:35.934Z,3.95
2019-05-30T02:46:03.505Z,4.87
2019-05-30T02:48:29.997Z,3.65
2019-05-30T02:50:56.091Z,4.30
2019-05-30T02:53:22.113Z,3.35
2019-05-30T02:55:48.151Z,3.45
2019-05-30T02:58:14.189Z,4.90
2019-05-30T03:00:42.267Z,3.22
2019-05-30T03:03:09.794Z,3.70
2019-05-30T03:05:36.262Z,4.08
2019-05-30T03:08:04.455Z,4.28
2019-05-30T03:10:30.326Z,4.37
2019-05-30T03:12:56.586Z,4.12
2019-05-30T03:15:23.219Z,3.30
2019-05-30T03:17:49.299Z,3.83
2019-05-30T03:20:22.820Z,3.47
2019-05-30T03:22:44.537Z,3.90
2019-05-30T03:25:15.326Z,4.40
2019-05-30T03:27:39.201Z,3.98
2019-05-30T03:30:13.326Z,3.45
2019-05-30T03:35:09.161Z,4.20
2019-05-30T03:37:32.136Z,4.00
2019-05-30T03:39:58.150Z,3.77
2019-05-30T03:42:24.174Z,3.20
2019-05-30T03:44:50.211Z,3.72
2019-05-30T03:47:17.442Z,3.50
2019-05-30T03:49:45.101Z,3.65
2019-05-30T03:52:16.855Z,3.02
2019-05-30T03:54:42.370Z,5.85
2019-05-30T03:57:17.740Z,3.35
2019-05-30T03:59:47.586Z,3.62
2019-05-30T04:02:23.460Z,3.00
2019-05-30T04:04:56.028Z,3.98
2019-05-30T04:07:25.579Z,3.62
2019-05-30T04:09:53.711Z,2.95
2019-05-30T04:12:29.694Z,3.12
2019-05-30T04:14:59.533Z,3.65
2019-05-30T04:17:25.555Z,4.92
2019-05-30T04:19:51.884Z,3.52
2019-05-30T04:22:19.453Z,3.90
2019-05-30T04:24:45.866Z,3.52
2019-05-30T04:27:12.402Z,4.10
2019-05-30T04:29:39.803Z,4.03
2019-05-30T04:32:05.835Z,3.35
2019-05-30T04:34:31.867Z,4.10
2019-05-30T04:36:57.884Z,3.40
2019-05-30T04:39:23.899Z,4.67
2019-05-30T04:41:49.924Z,4.33
2019-05-30T04:44:16.729Z,5.53
2019-05-30T04:46:43.864Z,4.70
2019-05-30T04:49:10.163Z,3.45
2019-05-30T04:51:36.807Z,4.08
2019-05-30T04:54:03.230Z,3.40
2019-05-30T04:56:29.252Z,3.60
2019-05-30T04:58:55.306Z,4.05
2019-05-30T05:01:22.387Z,3.40
2019-05-30T05:03:48.483Z,4.72
2019-05-30T05:06:15.808Z,5.25
2019-05-30T05:08:42.172Z,4.20
2019-05-30T05:11:12.244Z,4.17
2019-05-30T05:13:36.117Z,3.80
2019-05-30T05:16:02.117Z,3.60
2019-05-30T05:18:28.174Z,4.45
2019-05-30T05:20:54.206Z,3.50
2019-05-30T05:23:21.251Z,3.60
2019-05-30T05:25:59.844Z,4.42
2019-05-30T05:28:15.776Z,3.45
2019-05-30T05:30:41.914Z,4.10
2019-05-30T05:33:07.923Z,3.55
2019-05-30T05:35:33.960Z,3.92
2019-05-30T05:37:59.970Z,4.08
2019-05-30T05:40:26.015Z,4.12
2019-05-30T05:42:52.318Z,5.33
2019-05-30T05:45:18.768Z,4.53
2019-05-30T05:47:44.785Z,3.42
2019-05-30T05:50:11.109Z,3.60
2019-05-30T05:52:37.720Z,3.77
2019-05-30T05:55:04.463Z,3.77
2019-05-30T05:57:30.934Z,5.90
2019-05-30T05:59:56.956Z,3.95
2019-05-30T06:02:23.323Z,4.47
2019-05-30T06:04:49.788Z,3.80
2019-05-30T06:07:16.065Z,4.25
2019-05-30T06:09:42.255Z,4.87
2019-05-30T06:12:12.819Z,4.05
2019-05-30T06:14:38.842Z,3.83
2019-05-30T06:17:04.954Z,4.37
2019-05-30T06:19:45.354Z,4.55
2019-05-30T06:21:58.898Z,4.50
2019-05-30T06:24:25.725Z,4.97
2019-05-30T06:26:51.850Z,6.37
2019-05-30T06:29:18.020Z,4.70
2019-05-30T06:31:44.032Z,3.95
2019-05-30T06:34:10.092Z,5.45
2019-05-30T06:36:36.142Z,6.70
2019-05-30T06:39:06.081Z,4.70
2019-05-30T06:41:32.151Z,5.22
2019-05-30T06:43:58.185Z,6.72
2019-05-30T06:46:24.238Z,5.92
2019-05-30T06:48:50.263Z,5.40
2019-05-30T06:51:16.296Z,4.70
2019-05-30T06:53:42.337Z,5.50
2019-05-30T06:56:08.395Z,4.42
2019-05-30T06:58:47.854Z,4.15
2019-05-30T07:01:02.452Z,8.45
2019-05-30T07:03:28.824Z,6.70
2019-05-30T07:05:55.351Z,4.42
2019-05-30T07:08:22.635Z,4.33
2019-05-30T07:10:48.907Z,5.42
2019-05-30T07:13:14.961Z,7.20
2019-05-30T07:15:40.994Z,5.10
2019-05-30T07:18:07.278Z,5.00
2019-05-30T07:20:33.838Z,4.28
2019-05-30T07:23:00.001Z,6.37
2019-05-30T07:25:26.137Z,5.17
2019-05-30T07:27:52.271Z,3.95
2019-05-30T07:30:18.718Z,5.75
2019-05-30T07:32:44.756Z,4.17
2019-05-30T07:35:11.293Z,3.65
2019-05-30T07:37:37.419Z,4.28
2019-05-30T07:40:05.447Z,6.20
2019-05-30T07:42:32.684Z,4.33
2019-05-30T07:45:00.382Z,3.52
2019-05-30T07:47:27.992Z,4.28
2019-05-30T07:49:54.291Z,3.58
2019-05-30T07:52:20.556Z,5.00
2019-05-30T07:54:46.643Z,4.03
2019-05-30T07:57:12.830Z,3.27
2019-05-30T07:59:38.853Z,5.55
2019-05-30T08:02:05.455Z,3.80
2019-05-30T08:04:32.509Z,3.20
2019-05-30T08:07:00.062Z,3.37
2019-05-30T08:09:26.829Z,4.50
2019-05-30T08:11:53.050Z,4.42
2019-05-30T08:14:24.185Z,3.45
2019-05-30T08:16:50.216Z,4.15
2019-05-30T08:19:16.318Z,4.90
2019-05-30T08:21:42.502Z,4.47
2019-05-30T08:24:08.534Z,3.80
2019-05-30T08:26:34.574Z,3.20
2019-05-30T08:29:00.624Z,4.40
2019-05-30T08:31:26.665Z,3.25
2019-05-30T08:33:52.701Z,3.50
2019-05-30T08:36:18.771Z,3.55
2019-05-30T08:38:48.110Z,7.60
2019-05-30T08:41:13.102Z,4.17
2019-05-30T08:43:39.707Z,3.58
2019-05-30T08:46:05.959Z,4.03
2019-05-30T08:48:32.945Z,4.70
2019-05-30T08:50:59.974Z,3.22
2019-05-30T08:53:26.117Z,4.12
2019-05-30T08:55:52.222Z,2.60
2019-05-30T08:58:18.284Z,2.92
2019-05-30T09:00:44.425Z,6.75
2019-05-30T09:03:10.555Z,4.92
2019-05-30T09:05:36.574Z,3.62
2019-05-30T09:08:03.067Z,3.20
2019-05-30T09:10:29.128Z,3.55
2019-05-30T09:12:55.225Z,5.03
2019-05-30T09:15:22.239Z,4.40
2019-05-30T09:17:48.455Z,2.50
2019-05-30T09:20:16.653Z,3.58
2019-05-30T09:22:43.724Z,3.30
2019-05-30T09:25:11.218Z,2.83
2019-05-30T09:27:38.903Z,3.80
2019-05-30T09:30:07.185Z,2.50
2019-05-30T09:32:33.251Z,3.98
2019-05-30T09:34:59.334Z,4.35
2019-05-30T09:37:25.425Z,3.80
2019-05-30T09:39:51.452Z,2.87
2019-05-30T09:42:17.675Z,3.20
2019-05-30T09:44:45.764Z,1.92
2019-05-30T09:47:11.609Z,2.72
2019-05-30T09:49:37.679Z,1.45
2019-05-30T09:52:03.834Z,1.72
2019-05-30T09:54:29.857Z,1.40
2019-05-30T09:56:57.302Z,2.12
2019-05-30T09:59:23.513Z,1.62
2019-05-30T10:01:50.126Z,1.92
2019-05-30T10:04:16.249Z,2.08
2019-05-30T10:06:43.597Z,1.45
2019-05-30T10:09:10.221Z,2.08
2019-05-30T10:11:36.496Z,1.95
2019-05-30T10:14:03.625Z,1.50
2019-05-30T10:16:29.646Z,1.67
2019-05-30T10:18:56.901Z,1.70
2019-05-30T10:21:23.186Z,1.72
2019-05-30T10:23:49.520Z,1.75
2019-05-30T10:26:15.646Z,1.80
2019-05-30T10:28:41.718Z,1.50
2019-05-30T10:31:08.013Z,1.40
2019-05-30T10:33:34.154Z,2.37
2019-05-30T10:36:00.185Z,2.40
2019-05-30T10:38:26.250Z,1.62
2019-05-30T10:43:30.474Z,1.67
2019-05-30T10:45:58.895Z,2.77
2019-05-30T10:48:27.315Z,1.50
2019-05-30T10:50:56.430Z,1.50
2019-05-30T10:53:24.939Z,2.60
2019-05-30T10:55:54.709Z,1.50
2019-05-30T10:58:23.341Z,1.67
2019-05-30T11:00:55.893Z,3.10
2019-05-30T11:03:26.188Z,1.65
2019-05-30T11:06:12.501Z,1.40
2019-05-30T11:08:42.858Z,1.57
2019-05-30T11:11:11.554Z,1.50
2019-05-30T11:13:40.110Z,2.25
2019-05-30T11:16:08.534Z,3.10
2019-05-30T11:18:36.953Z,1.92
2019-05-30T11:21:05.531Z,2.98
2019-05-30T11:23:34.024Z,2.20
2019-05-30T11:26:02.437Z,2.30
2019-05-30T11:28:30.889Z,4.78
2019-05-30T11:30:59.296Z,1.45
2019-05-30T11:33:27.968Z,1.80
2019-05-30T11:35:57.154Z,2.70
2019-05-30T11:38:25.824Z,1.52
2019-05-30T11:40:55.427Z,2.25
2019-05-30T11:43:24.059Z,1.70
2019-05-30T11:45:53.556Z,1.17
2019-05-30T11:48:22.091Z,2.00
2019-05-30T11:50:51.934Z,3.30
2019-05-30T11:53:20.494Z,1.42
2019-05-30T11:55:50.151Z,2.12
2019-05-30T11:58:19.746Z,4.37
2019-05-30T12:00:48.578Z,2.45
2019-05-30T12:03:17.911Z,3.00
2019-05-30T12:05:46.344Z,1.90
2019-05-30T12:08:14.744Z,2.20
2019-05-30T12:10:43.192Z,3.65
2019-05-30T12:13:11.583Z,2.02
2019-05-30T12:15:40.025Z,5.35
2019-05-30T12:18:08.436Z,2.85
2019-05-30T12:20:36.896Z,1.40
2019-05-30T12:23:05.624Z,2.50
2019-05-30T12:25:34.075Z,1.72
2019-05-30T12:28:04.436Z,2.37
2019-05-30T12:30:33.398Z,1.80
2019-05-30T12:33:02.599Z,2.30
2019-05-30T12:35:31.498Z,1.43
2019-05-30T12:38:04.282Z,3.33
2019-05-30T12:40:30.042Z,1.52
2019-05-30T12:42:59.903Z,2.30
2019-05-30T12:45:28.673Z,1.90
2019-05-30T12:47:57.141Z,3.10
2019-05-30T12:50:25.905Z,2.60
2019-05-30T12:52:55.417Z,1.40
2019-05-30T12:55:23.914Z,2.65
2019-05-30T12:57:52.322Z,1.55
2019-05-30T13:00:23.805Z,2.58
2019-05-30T13:02:52.455Z,1.97
2019-05-30T13:05:21.966Z,3.45
2019-05-30T13:07:50.454Z,4.20
2019-05-30T13:10:19.518Z,3.60
2019-05-30T13:12:47.910Z,2.30
2019-05-30T13:15:16.499Z,1.70
2019-05-30T13:17:44.907Z,1.85
2019-05-30T13:20:13.878Z,2.15
2019-05-30T13:22:43.040Z,2.85
2019-05-30T13:25:14.547Z,4.25
2019-05-30T13:27:42.968Z,2.02
2019-05-30T13:30:13.501Z,3.80
2019-05-30T13:32:41.940Z,2.85
2019-05-30T13:35:10.702Z,3.10
2019-05-30T13:37:39.108Z,2.30
2019-05-30T13:40:23.700Z,2.92
2019-05-30T13:42:39.554Z,3.47
2019-05-30T13:45:09.513Z,3.90
2019-05-30T13:47:38.278Z,2.35
2019-05-30T13:50:13.446Z,2.52
2019-05-30T13:52:41.241Z,2.37
2019-05-30T13:55:10.384Z,2.40
2019-05-30T13:57:39.077Z,3.45
2019-05-30T14:00:10.656Z,3.17
2019-05-30T14:02:39.531Z,4.15
2019-05-30T14:05:08.642Z,2.80
2019-05-30T14:07:37.135Z,2.83
2019-05-30T14:10:10.733Z,2.47
2019-05-30T14:12:39.746Z,2.95
2019-05-30T14:15:14.462Z,5.95
2019-05-30T14:17:43.288Z,2.90
2019-05-30T14:20:13.037Z,3.40
2019-05-30T14:22:41.563Z,2.35
2019-05-30T14:25:11.940Z,3.87
2019-05-30T14:27:40.407Z,2.63
2019-05-30T14:30:11.281Z,2.85
2019-05-30T14:32:40.261Z,2.83
2019-05-30T14:35:11.717Z,3.62
2019-05-30T14:37:39.568Z,5.67
2019-05-30T14:40:13.264Z,2.58
2019-05-30T14:42:41.761Z,2.72
2019-05-30T14:45:12.537Z,3.60
2019-05-30T14:47:41.204Z,3.20
2019-05-30T14:50:11.230Z,4.25
2019-05-30T14:52:39.842Z,2.40
2019-05-30T14:55:09.182Z,3.30
2019-05-30T14:57:38.063Z,3.62
2019-05-30T15:00:09.428Z,2.55
2019-05-30T15:02:38.309Z,3.70
2019-05-30T15:05:07.367Z,2.40
2019-05-30T15:07:36.121Z,3.45
2019-05-30T15:10:08.871Z,3.33
2019-05-30T15:12:37.312Z,3.35
2019-05-30T15:15:09.038Z,4.05
2019-05-30T15:17:37.746Z,2.95
2019-05-30T15:20:10.687Z,2.73
2019-05-30T15:22:39.820Z,3.15
2019-05-30T15:25:09.936Z,3.90
2019-05-30T15:27:38.530Z,3.37
2019-05-30T15:30:08.897Z,2.35
2019-05-30T15:32:37.365Z,3.20
2019-05-30T15:35:06.780Z,2.70
2019-05-30T15:37:35.301Z,4.45
2019-05-30T15:40:06.861Z,2.62
2019-05-30T15:42:35.713Z,3.95
2019-05-30T15:45:07.867Z,3.20
2019-05-30T15:47:36.535Z,2.80
2019-05-30T15:50:06.099Z,3.02
2019-05-30T15:52:34.522Z,3.45
2019-05-30T15:55:04.570Z,2.90
2019-05-30T15:57:33.018Z,2.92
2019-05-30T16:00:01.512Z,4.22
2019-05-30T16:02:29.999Z,2.90
2019-05-30T16:04:58.390Z,3.42
2019-05-30T16:07:26.800Z,4.22
2019-05-30T16:09:55.225Z,3.22
2019-05-30T16:12:23.644Z,3.17
2019-05-30T16:14:52.093Z,3.05
2019-05-30T16:17:21.675Z,3.65
2019-05-30T16:19:50.319Z,3.10
2019-05-30T16:22:18.732Z,2.75
2019-05-30T16:24:47.170Z,3.23
2019-05-30T16:27:15.830Z,4.22
2019-05-30T16:29:44.836Z,3.30
2019-05-30T16:32:13.773Z,2.70
2019-05-30T16:34:42.255Z,3.17
2019-05-30T16:37:12.311Z,3.20
2019-05-30T16:39:40.745Z,4.15
2019-05-30T16:42:09.419Z,3.45
2019-05-30T16:44:38.143Z,3.98
2019-05-30T16:47:06.558Z,4.28
2019-05-30T16:49:35.013Z,3.87
2019-05-30T16:52:03.507Z,3.27
2019-05-30T16:54:31.966Z,4.20
2019-05-30T16:57:00.449Z,4.25
2019-05-30T16:59:28.865Z,4.20
2019-05-30T17:01:58.474Z,4.97
2019-05-30T17:04:27.308Z,5.30
2019-05-30T17:06:55.800Z,3.45
2019-05-30T17:09:24.201Z,3.65
2019-05-30T17:11:52.863Z,3.47
2019-05-30T17:14:21.813Z,3.00
2019-05-30T17:16:50.274Z,4.03
2019-05-30T17:19:18.661Z,2.45
2019-05-30T17:21:47.098Z,3.33
2019-05-30T17:24:16.885Z,3.92
2019-05-30T17:26:45.530Z,4.67
2019-05-30T17:29:13.983Z,2.85
2019-05-30T17:31:42.412Z,3.75
2019-05-30T17:34:10.846Z,2.95
2019-05-30T17:36:39.342Z,2.95
2019-05-30T17:39:09.259Z,3.20
2019-05-30T17:41:37.696Z,4.17
2019-05-30T17:44:06.493Z,3.85
2019-05-30T17:46:34.973Z,3.17
2019-05-30T17:49:03.626Z,4.35
2019-05-30T17:51:32.037Z,3.60
2019-05-30T17:54:00.453Z,4.45
2019-05-30T17:56:30.121Z,7.37
2019-05-30T17:58:58.649Z,5.80
2019-05-30T18:01:28.192Z,4.72
2019-05-30T18:03:56.986Z,4.45
2019-05-30T18:06:26.471Z,3.90
2019-05-30T18:08:55.078Z,3.70
2019-05-30T18:11:23.479Z,4.25
2019-05-30T18:13:51.923Z,3.45
2019-05-30T18:16:21.091Z,3.15
2019-05-30T18:18:49.633Z,4.12
2019-05-30T18:21:18.072Z,3.37
2019-05-30T18:23:46.557Z,3.50
2019-05-30T18:26:15.000Z,2.55
2019-05-30T18:28:43.454Z,2.75
2019-05-30T18:31:12.616Z,2.45
2019-05-30T18:33:41.109Z,2.60
2019-05-30T18:36:09.493Z,2.30
2019-05-30T18:38:37.993Z,2.47
2019-05-30T18:41:11.491Z,4.37
2019-05-30T18:43:36.966Z,2.83
2019-05-30T18:46:05.458Z,3.58
2019-05-30T18:48:34.424Z,2.20
2019-05-30T18:51:02.901Z,2.67
2019-05-30T18:53:32.468Z,2.40
2019-05-30T18:56:01.117Z,3.12
2019-05-30T18:58:29.527Z,2.40
2019-05-30T19:00:57.944Z,2.37
2019-05-30T19:03:28.408Z,2.40
2019-05-30T19:05:56.987Z,3.03
2019-05-30T19:08:25.714Z,2.47
2019-05-30T19:10:54.287Z,2.55
2019-05-30T19:13:22.687Z,3.10
2019-05-30T19:15:51.091Z,4.62
2019-05-30T19:18:19.500Z,2.60
2019-05-30T19:20:47.974Z,2.40
2019-05-30T19:23:16.380Z,3.08
2019-05-30T19:25:44.812Z,2.40
2019-05-30T19:28:13.286Z,2.40
2019-05-30T19:30:41.716Z,3.70
2019-05-30T19:33:10.134Z,2.47
2019-05-30T19:35:38.818Z,3.50
2019-05-30T19:38:07.213Z,3.35
2019-05-30T19:40:35.880Z,3.08
2019-05-30T19:43:04.446Z,2.70
2019-05-30T19:45:33.984Z,3.40
2019-05-30T19:48:02.616Z,3.22
2019-05-30T19:50:31.045Z,2.40
2019-05-30T19:52:59.439Z,4.20
2019-05-30T19:55:29.025Z,2.85
2019-05-30T19:57:57.890Z,2.52
2019-05-30T20:00:26.846Z,4.47
2019-05-30T20:02:55.537Z,3.08
2019-05-30T20:05:23.923Z,2.37
2019-05-30T20:07:52.397Z,4.33
2019-05-30T20:10:21.160Z,2.50
2019-05-30T20:12:49.646Z,2.43
2019-05-30T20:15:19.880Z,3.92
2019-05-30T20:17:48.314Z,2.90
2019-05-30T20:20:16.806Z,3.37
2019-05-30T20:22:45.232Z,3.95
2019-05-30T20:25:14.295Z,4.40
2019-05-30T20:27:43.168Z,3.25
2019-05-30T20:30:12.670Z,2.75
2019-05-30T20:32:41.217Z,3.40
2019-05-30T20:35:10.307Z,3.63
2019-05-30T20:37:38.821Z,3.02
2019-05-30T20:40:08.863Z,4.42
2019-05-30T20:42:37.306Z,3.00
2019-05-30T20:45:10.005Z,3.60
2019-05-30T20:47:40.700Z,4.10
2019-05-30T20:50:10.343Z,3.12
2019-05-30T20:52:41.837Z,3.72
2019-05-30T20:55:10.233Z,12.23
2019-05-30T20:57:38.729Z,4.80
2019-05-30T21:00:11.540Z,5.03
2019-05-30T21:02:40.850Z,5.78
2019-05-30T21:05:10.137Z,6.03
2019-05-30T21:07:41.947Z,3.87
2019-05-30T21:10:11.019Z,3.62
2019-05-30T21:12:44.397Z,4.62
2019-05-30T21:15:10.193Z,4.85
2019-05-30T21:17:39.702Z,4.58
2019-05-30T21:20:11.520Z,4.08
2019-05-30T21:22:40.111Z,4.70
2019-05-30T21:25:08.843Z,3.98
2019-05-30T21:27:38.847Z,4.00
2019-05-30T21:30:08.231Z,4.27
2019-05-30T21:32:37.522Z,4.42
2019-05-30T21:35:08.155Z,3.98
2019-05-30T21:37:37.620Z,4.12
2019-05-30T21:40:09.560Z,4.33
2019-05-30T21:42:55.744Z,4.12
2019-05-30T21:45:08.902Z,3.40
2019-05-30T21:47:38.564Z,5.08
2019-05-30T21:50:07.731Z,4.30
2019-05-30T21:52:36.142Z,3.55
2019-05-30T21:55:05.903Z,5.33
2019-05-30T21:57:34.324Z,3.45
2019-05-30T22:00:02.719Z,4.72
2019-05-30T22:02:31.121Z,4.03
2019-05-30T22:04:59.546Z,3.00
2019-05-30T22:07:27.975Z,4.95
2019-05-30T22:09:57.162Z,4.50
2019-05-30T22:12:25.573Z,4.20
2019-05-30T22:14:54.013Z,4.80
2019-05-30T22:17:22.430Z,4.30
2019-05-30T22:19:52.200Z,4.65
2019-05-30T22:22:21.088Z,3.80
2019-05-30T22:24:50.354Z,5.22
2019-05-30T22:27:18.855Z,5.65
2019-05-30T22:29:48.391Z,4.28
2019-05-30T22:32:17.126Z,4.65
2019-05-30T22:34:46.626Z,4.35
2019-05-30T22:37:15.119Z,6.03
2019-05-30T22:39:44.752Z,4.37
2019-05-30T22:42:13.345Z,4.92
2019-05-30T22:44:41.769Z,5.55
2019-05-30T22:47:10.382Z,4.00
2019-05-30T22:49:38.831Z,4.87
2019-05-30T22:52:07.855Z,5.12
2019-05-30T22:54:36.296Z,4.37
2019-05-30T22:57:04.776Z,4.75
2019-05-30T22:59:33.209Z,3.65
2019-05-30T23:02:01.675Z,4.50
2019-05-30T23:04:30.095Z,3.72
2019-05-30T23:06:58.493Z,5.10
2019-05-30T23:09:26.932Z,6.00
2019-05-30T23:11:56.133Z,5.50
2019-05-30T23:14:24.551Z,4.87
2019-05-30T23:16:52.957Z,5.45
2019-05-30T23:19:21.388Z,4.22
2019-05-30T23:21:51.553Z,5.75
2019-05-30T23:24:20.445Z,4.55
2019-05-30T23:26:49.420Z,5.50
2019-05-30T23:29:18.040Z,5.75
2019-05-30T23:31:46.462Z,5.15
2019-05-30T23:34:14.952Z,6.83
2019-05-30T23:36:43.362Z,4.05
2019-05-30T23:39:11.825Z,5.08
2019-05-30T23:41:40.228Z,4.95
2019-05-30T23:44:11.692Z,5.78
2019-05-30T23:46:38.848Z,4.92
2019-05-30T23:49:07.266Z,5.25
2019-05-30T23:51:35.682Z,4.83
2019-05-30T23:54:04.112Z,4.80
2019-05-30T23:56:32.531Z,4.75
2019-05-30T23:59:01.408Z,5.30
